Time,TemperatureF,DewpointF,PressureIn,WindDirection,WindDirectionDegrees,WindSpeedMPH,WindSpeedGustMPH,Humidity,HourlyPrecipIn,Conditions,Clouds,dailyrainin,SoftwareType,DateUTC
2013-01-21 00:00:00,32.7,9.9,30.03,West,269,1.0,6.0,38,0.00,,---,0.00,VWS V14.01,2013-01-21 05:00:00,
2013-01-21 00:02:00,32.5,10.3,30.03,West,269,1.0,4.0,39,0.00,,---,0.00,VWS V14.01,2013-01-21 05:02:00,
2013-01-21 00:03:00,32.5,10.3,30.04,West,269,0.0,0.0,39,0.00,,---,0.00,VWS V14.01,2013-01-21 05:03:00,
2013-01-21 00:06:00,32.5,10.3,30.04,NW,324,2.0,2.0,39,0.00,,---,0.00,VWS V14.01,2013-01-21 05:06:00,
2013-01-21 00:07:00,32.4,10.2,30.04,NW,323,0.0,0.0,39,0.00,,---,0.00,VWS V14.01,2013-01-21 05:07:00,
2013-01-21 00:08:00,32.4,10.2,30.04,WNW,289,2.0,4.0,39,0.00,,---,0.00,VWS V14.01,2013-01-21 05:08:00,
2013-01-21 00:11:00,32.4,10.8,30.04,WNW,300,0.0,0.0,40,0.00,,---,0.00,VWS V14.01,2013-01-21 05:11:00,
2013-01-21 00:12:00,32.2,10.6,30.04,West,279,0.0,1.0,40,0.00,,---,0.00,VWS V14.01,2013-01-21 05:12:00,
2013-01-21 00:13:00,32.2,10.6,30.04,West,279,0.0,0.0,40,0.00,,---,0.00,VWS V14.01,2013-01-21 05:13:00,
2013-01-21 00:16:00,32.2,10.6,30.04,West,279,0.0,0.0,40,0.00,,---,0.00,VWS V14.01,2013-01-21 05:16:00,
2013-01-21 00:17:00,32.1,10.5,30.04,West,279,0.0,0.0,40,0.00,,---,0.00,VWS V14.01,2013-01-21 05:17:00,
2013-01-21 00:18:00,32.1,10.5,30.04,West,279,0.0,0.0,40,0.00,,---,0.00,VWS V14.01,2013-01-21 05:18:00,
2013-01-21 00:21:00,32.1,10.5,30.04,West,279,0.0,0.0,40,0.00,,---,0.00,VWS V14.01,2013-01-21 05:21:00,
2013-01-21 00:22:00,31.9,10.3,30.04,West,279,0.0,0.0,40,0.00,,---,0.00,VWS V14.01,2013-01-21 05:22:00,
2013-01-21 00:23:00,31.9,10.3,30.04,NW,309,3.0,3.0,40,0.00,,---,0.00,VWS V14.01,2013-01-21 05:23:00,
2013-01-21 00:26:00,31.8,10.8,30.04,WNW,302,0.0,0.0,41,0.00,,---,0.00,VWS V14.01,2013-01-21 05:26:00,
2013-01-21 00:27:00,31.8,10.8,30.04,WNW,300,5.0,6.0,41,0.00,,---,0.00,VWS V14.01,2013-01-21 05:27:00,
2013-01-21 00:28:00,31.8,10.8,30.04,NNW,342,0.0,1.0,41,0.00,,---,0.00,VWS V14.01,2013-01-21 05:28:00,
2013-01-21 00:32:00,31.6,10.6,30.03,West,265,0.0,0.0,41,0.00,,---,0.00,VWS V14.01,2013-01-21 05:32:00,
2013-01-21 00:33:00,31.5,10.5,30.03,West,265,0.0,0.0,41,0.00,,---,0.00,VWS V14.01,2013-01-21 05:33:00,
2013-01-21 00:37:00,31.3,10.3,30.03,WSW,246,0.0,4.0,41,0.00,,---,0.00,VWS V14.01,2013-01-21 05:37:00,
2013-01-21 00:38:00,31.3,10.3,30.03,WNW,300,7.0,7.0,41,0.00,,---,0.00,VWS V14.01,2013-01-21 05:38:00,
2013-01-21 00:42:00,31.2,10.2,30.03,SW,225,4.0,6.0,41,0.00,,---,0.00,VWS V14.01,2013-01-21 05:42:00,
2013-01-21 00:43:00,31.2,10.2,30.03,West,280,6.0,6.0,41,0.00,,---,0.00,VWS V14.01,2013-01-21 05:43:00,
2013-01-21 00:48:00,31.2,10.8,30.03,WNW,297,0.0,0.0,42,0.00,,---,0.00,VWS V14.01,2013-01-21 05:48:00,
2013-01-21 00:49:00,31.0,10.6,30.03,WNW,290,0.0,0.0,42,0.00,,---,0.00,VWS V14.01,2013-01-21 05:49:00,
2013-01-21 00:53:00,31.0,10.6,30.03,WNW,290,0.0,0.0,42,0.00,,---,0.00,VWS V14.01,2013-01-21 05:53:00,
2013-01-21 00:54:00,31.0,10.6,30.03,WNW,290,0.0,0.0,42,0.00,,---,0.00,VWS V14.01,2013-01-21 05:54:00,
2013-01-21 00:58:00,30.9,10.5,30.03,WNW,290,0.0,0.0,42,0.00,,---,0.00,VWS V14.01,2013-01-21 05:58:00,
2013-01-21 00:59:00,30.9,10.5,30.03,WNW,290,0.0,0.0,42,0.00,,---,0.00,VWS V14.01,2013-01-21 05:59:00,
2013-01-21 01:05:00,30.7,10.3,30.03,WNW,292,0.0,0.0,42,0.00,,---,0.00,VWS V14.01,2013-01-21 06:05:00,
2013-01-21 01:10:00,30.6,10.2,30.03,WNW,292,0.0,0.0,42,0.00,,---,0.00,VWS V14.01,2013-01-21 06:10:00,
2013-01-21 01:11:00,30.6,10.2,30.03,WNW,292,1.0,1.0,42,0.00,,---,0.00,VWS V14.01,2013-01-21 06:11:00,
2013-01-21 01:18:00,30.3,10.5,30.04,WNW,292,0.0,0.0,43,0.00,,---,0.00,VWS V14.01,2013-01-21 06:18:00,
2013-01-21 01:26:00,30.1,10.8,30.04,WNW,285,0.0,0.0,44,0.00,,---,0.00,VWS V14.01,2013-01-21 06:26:00,
2013-01-21 01:28:00,30.1,10.8,30.04,WNW,286,0.0,0.0,44,0.00,,---,0.00,VWS V14.01,2013-01-21 06:28:00,
2013-01-21 01:31:00,30.0,10.2,30.04,WNW,286,0.0,0.0,43,0.00,,---,0.00,VWS V14.01,2013-01-21 06:31:00,
2013-01-21 01:33:00,30.0,10.7,30.04,WNW,286,0.0,0.0,44,0.00,,---,0.00,VWS V14.01,2013-01-21 06:33:00,
2013-01-21 01:34:00,30.0,10.7,30.04,WNW,286,0.0,1.0,44,0.00,,---,0.00,VWS V14.01,2013-01-21 06:34:00,
2013-01-21 01:37:00,30.0,11.2,30.04,WNW,297,0.0,0.0,45,0.00,,---,0.00,VWS V14.01,2013-01-21 06:37:00,
2013-01-21 01:38:00,30.0,11.2,30.04,WNW,297,0.0,0.0,45,0.00,,---,0.00,VWS V14.01,2013-01-21 06:38:00,
2013-01-21 01:39:00,30.0,10.7,30.04,WNW,297,0.0,0.0,44,0.00,,---,0.00,VWS V14.01,2013-01-21 06:39:00,
2013-01-21 01:42:00,29.8,11.6,30.04,WNW,297,0.0,0.0,46,0.00,,---,0.00,VWS V14.01,2013-01-21 06:42:00,
2013-01-21 01:48:00,29.8,11.6,30.05,WNW,297,0.0,0.0,46,0.00,,---,0.00,VWS V14.01,2013-01-21 06:48:00,
2013-01-21 01:57:00,29.5,11.3,30.05,WNW,297,0.0,0.0,46,0.00,,---,0.00,VWS V14.01,2013-01-21 06:57:00,
2013-01-21 01:58:00,29.5,11.3,30.05,WNW,297,0.0,0.0,46,0.00,,---,0.00,VWS V14.01,2013-01-21 06:58:00,
2013-01-21 02:02:00,29.4,11.2,30.04,WNW,297,0.0,0.0,46,0.00,,---,0.00,VWS V14.01,2013-01-21 07:02:00,
2013-01-21 02:03:00,29.3,11.1,30.04,WNW,297,0.0,0.0,46,0.00,,---,0.00,VWS V14.01,2013-01-21 07:03:00,
2013-01-21 02:04:00,29.3,11.1,30.04,WNW,297,0.0,0.0,46,0.00,,---,0.00,VWS V14.01,2013-01-21 07:04:00,
2013-01-21 02:08:00,29.1,10.9,30.04,WNW,297,0.0,0.0,46,0.00,,---,0.00,VWS V14.01,2013-01-21 07:08:00,
2013-01-21 02:10:00,29.0,10.8,30.04,WNW,297,0.0,0.0,46,0.00,,---,0.00,VWS V14.01,2013-01-21 07:10:00,
2013-01-21 02:13:00,29.0,10.8,30.04,WNW,297,0.0,0.0,46,0.00,,---,0.00,VWS V14.01,2013-01-21 07:13:00,
2013-01-21 02:18:00,28.7,10.6,30.05,WNW,297,0.0,0.0,46,0.00,,---,0.00,VWS V14.01,2013-01-21 07:18:00,
2013-01-21 02:23:00,28.4,10.8,30.05,WNW,297,0.0,0.0,47,0.00,,---,0.00,VWS V14.01,2013-01-21 07:23:00,
2013-01-21 02:26:00,28.4,10.8,30.05,WNW,297,0.0,0.0,47,0.00,,---,0.00,VWS V14.01,2013-01-21 07:26:00,
2013-01-21 02:28:00,28.2,10.6,30.05,WNW,297,0.0,0.0,47,0.00,,---,0.00,VWS V14.01,2013-01-21 07:28:00,
2013-01-21 02:31:00,28.1,10.9,30.05,WNW,297,0.0,0.0,48,0.00,,---,0.00,VWS V14.01,2013-01-21 07:31:00,
2013-01-21 02:33:00,27.9,10.8,30.04,WNW,297,0.0,0.0,48,0.00,,---,0.00,VWS V14.01,2013-01-21 07:33:00,
2013-01-21 02:38:00,27.8,10.7,30.04,WNW,297,0.0,0.0,48,0.00,,---,0.00,VWS V14.01,2013-01-21 07:38:00,
2013-01-21 02:43:00,27.5,10.4,30.04,WNW,297,0.0,0.0,48,0.00,,---,0.00,VWS V14.01,2013-01-21 07:43:00,
2013-01-21 02:44:00,27.5,10.4,30.04,WNW,297,0.0,0.0,48,0.00,,---,0.00,VWS V14.01,2013-01-21 07:44:00,
2013-01-21 02:46:00,27.5,10.4,30.04,WNW,297,0.0,0.0,48,0.00,,---,0.00,VWS V14.01,2013-01-21 07:46:00,
2013-01-21 02:48:00,27.3,10.7,30.05,WNW,297,0.0,0.0,49,0.00,,---,0.00,VWS V14.01,2013-01-21 07:48:00,
2013-01-21 02:49:00,27.3,11.1,30.05,WNW,297,0.0,0.0,50,0.00,,---,0.00,VWS V14.01,2013-01-21 07:49:00,
2013-01-21 02:51:00,27.2,11.0,30.05,WNW,297,0.0,0.0,50,0.00,,---,0.00,VWS V14.01,2013-01-21 07:51:00,
2013-01-21 02:58:00,27.2,11.0,30.05,WNW,297,0.0,0.0,50,0.00,,---,0.00,VWS V14.01,2013-01-21 07:58:00,
2013-01-21 03:03:00,27.2,11.0,30.05,WNW,297,0.0,0.0,50,0.00,,---,0.00,VWS V14.01,2013-01-21 08:03:00,
2013-01-21 03:06:00,27.2,11.0,30.05,WNW,297,0.0,0.0,50,0.00,,---,0.00,VWS V14.01,2013-01-21 08:06:00,
2013-01-21 03:08:00,27.2,11.0,30.05,WNW,297,0.0,0.0,50,0.00,,---,0.00,VWS V14.01,2013-01-21 08:08:00,
2013-01-21 03:12:00,27.2,11.0,30.05,WNW,297,0.0,0.0,50,0.00,,---,0.00,VWS V14.01,2013-01-21 08:12:00,
2013-01-21 03:16:00,27.2,11.5,30.05,WNW,297,0.0,0.0,51,0.00,,---,0.00,VWS V14.01,2013-01-21 08:16:00,
2013-01-21 03:18:00,27.2,11.0,30.05,WNW,297,0.0,0.0,50,0.00,,---,0.00,VWS V14.01,2013-01-21 08:18:00,
2013-01-21 03:21:00,27.2,11.0,30.05,WNW,297,0.0,0.0,50,0.00,,---,0.00,VWS V14.01,2013-01-21 08:21:00,
2013-01-21 03:23:00,27.3,11.1,30.05,WNW,297,0.0,0.0,50,0.00,,---,0.00,VWS V14.01,2013-01-21 08:23:00,
2013-01-21 03:28:00,27.3,11.1,30.05,WNW,297,0.0,0.0,50,0.00,,---,0.00,VWS V14.01,2013-01-21 08:28:00,
2013-01-21 03:33:00,27.3,11.1,30.05,WNW,297,0.0,0.0,50,0.00,,---,0.00,VWS V14.01,2013-01-21 08:33:00,
2013-01-21 03:38:00,27.3,10.7,30.05,WNW,297,0.0,0.0,49,0.00,,---,0.00,VWS V14.01,2013-01-21 08:38:00,
2013-01-21 03:39:00,27.3,10.7,30.05,WNW,297,0.0,0.0,49,0.00,,---,0.00,VWS V14.01,2013-01-21 08:39:00,
2013-01-21 03:43:00,27.2,10.6,30.05,WNW,297,0.0,0.0,49,0.00,,---,0.00,VWS V14.01,2013-01-21 08:43:00,
2013-01-21 03:44:00,27.2,10.6,30.05,WNW,297,0.0,0.0,49,0.00,,---,0.00,VWS V14.01,2013-01-21 08:44:00,
2013-01-21 03:48:00,27.2,11.0,30.03,WNW,297,0.0,0.0,50,0.00,,---,0.00,VWS V14.01,2013-01-21 08:48:00,
2013-01-21 03:49:00,27.2,11.0,30.03,WNW,297,0.0,0.0,50,0.00,,---,0.00,VWS V14.01,2013-01-21 08:49:00,
2013-01-21 03:56:00,27.2,11.0,30.03,WNW,297,0.0,0.0,50,0.00,,---,0.00,VWS V14.01,2013-01-21 08:56:00,
2013-01-21 03:57:00,27.2,11.0,30.03,WNW,297,0.0,0.0,50,0.00,,---,0.00,VWS V14.01,2013-01-21 08:57:00,
2013-01-21 03:58:00,27.2,11.0,30.03,WNW,297,0.0,0.0,50,0.00,,---,0.00,VWS V14.01,2013-01-21 08:58:00,
2013-01-21 04:01:00,27.2,11.0,30.03,WNW,297,0.0,0.0,50,0.00,,---,0.00,VWS V14.01,2013-01-21 09:01:00,
2013-01-21 04:02:00,27.2,11.0,30.03,WNW,297,0.0,0.0,50,0.00,,---,0.00,VWS V14.01,2013-01-21 09:02:00,
2013-01-21 04:03:00,27.2,11.0,30.03,WNW,297,0.0,0.0,50,0.00,,---,0.00,VWS V14.01,2013-01-21 09:03:00,
2013-01-21 04:06:00,27.2,11.0,30.03,WNW,297,0.0,0.0,50,0.00,,---,0.00,VWS V14.01,2013-01-21 09:06:00,
2013-01-21 04:07:00,27.2,11.0,30.03,WNW,297,0.0,0.0,50,0.00,,---,0.00,VWS V14.01,2013-01-21 09:07:00,
2013-01-21 04:08:00,27.2,11.0,30.03,WNW,297,0.0,0.0,50,0.00,,---,0.00,VWS V14.01,2013-01-21 09:08:00,
2013-01-21 04:11:00,27.0,10.9,30.03,WNW,297,0.0,0.0,50,0.00,,---,0.00,VWS V14.01,2013-01-21 09:11:00,
2013-01-21 04:12:00,27.0,10.9,30.03,WNW,297,0.0,0.0,50,0.00,,---,0.00,VWS V14.01,2013-01-21 09:12:00,
2013-01-21 04:13:00,27.0,10.9,30.03,WNW,297,0.0,0.0,50,0.00,,---,0.00,VWS V14.01,2013-01-21 09:13:00,
2013-01-21 04:17:00,27.0,11.3,30.02,WNW,297,0.0,0.0,51,0.00,,---,0.00,VWS V14.01,2013-01-21 09:17:00,
2013-01-21 04:18:00,27.0,11.3,30.02,WNW,297,0.0,0.0,51,0.00,,---,0.00,VWS V14.01,2013-01-21 09:18:00,
2013-01-21 04:22:00,26.9,11.2,30.02,WNW,297,0.0,0.0,51,0.00,,---,0.00,VWS V14.01,2013-01-21 09:22:00,
2013-01-21 04:23:00,26.9,11.2,30.02,WNW,297,0.0,0.0,51,0.00,,---,0.00,VWS V14.01,2013-01-21 09:23:00,
2013-01-21 04:27:00,26.7,11.0,30.02,WNW,297,0.0,0.0,51,0.00,,---,0.00,VWS V14.01,2013-01-21 09:27:00,
2013-01-21 04:28:00,26.7,11.0,30.02,WNW,297,0.0,0.0,51,0.00,,---,0.00,VWS V14.01,2013-01-21 09:28:00,
2013-01-21 04:32:00,26.7,11.0,30.02,WNW,297,0.0,0.0,51,0.00,,---,0.00,VWS V14.01,2013-01-21 09:32:00,
2013-01-21 04:33:00,26.7,11.0,30.02,WNW,297,0.0,0.0,51,0.00,,---,0.00,VWS V14.01,2013-01-21 09:33:00,
2013-01-21 04:37:00,26.6,10.9,30.02,WNW,297,0.0,0.0,51,0.00,,---,0.00,VWS V14.01,2013-01-21 09:37:00,
2013-01-21 04:38:00,26.6,10.9,30.02,WNW,297,0.0,0.0,51,0.00,,---,0.00,VWS V14.01,2013-01-21 09:38:00,
2013-01-21 04:42:00,26.6,10.9,30.02,NNW,345,3.0,3.0,51,0.00,,---,0.00,VWS V14.01,2013-01-21 09:42:00,
2013-01-21 04:43:00,26.6,10.9,30.02,NNW,345,2.0,3.0,51,0.00,,---,0.00,VWS V14.01,2013-01-21 09:43:00,
2013-01-21 04:47:00,26.9,11.2,30.03,NNW,345,1.0,3.0,51,0.00,,---,0.00,VWS V14.01,2013-01-21 09:47:00,
2013-01-21 04:48:00,26.9,11.2,30.03,NNW,345,2.0,2.0,51,0.00,,---,0.00,VWS V14.01,2013-01-21 09:48:00,
2013-01-21 04:52:00,27.2,11.5,30.03,NNW,346,2.0,3.0,51,0.00,,---,0.00,VWS V14.01,2013-01-21 09:52:00,
2013-01-21 04:53:00,27.2,11.5,30.03,NNW,346,2.0,2.0,51,0.00,,---,0.00,VWS V14.01,2013-01-21 09:53:00,
2013-01-21 04:57:00,27.3,11.6,30.03,NNW,346,0.0,1.0,51,0.00,,---,0.00,VWS V14.01,2013-01-21 09:57:00,
2013-01-21 04:58:00,27.5,11.8,30.03,NNW,346,0.0,0.0,51,0.00,,---,0.00,VWS V14.01,2013-01-21 09:58:00,
2013-01-21 05:02:00,27.5,11.3,30.03,NNW,346,0.0,0.0,50,0.00,,---,0.00,VWS V14.01,2013-01-21 10:02:00,
2013-01-21 05:03:00,27.5,11.3,30.03,NNW,346,0.0,0.0,50,0.00,,---,0.00,VWS V14.01,2013-01-21 10:03:00,
2013-01-21 05:07:00,27.5,11.3,30.03,NNW,346,2.0,4.0,50,0.00,,---,0.00,VWS V14.01,2013-01-21 10:07:00,
2013-01-21 05:08:00,27.5,11.3,30.03,NNW,346,1.0,2.0,50,0.00,,---,0.00,VWS V14.01,2013-01-21 10:08:00,
2013-01-21 05:12:00,27.5,11.8,30.03,NNW,346,0.0,0.0,51,0.00,,---,0.00,VWS V14.01,2013-01-21 10:12:00,
2013-01-21 05:13:00,27.5,11.8,30.03,NNW,346,0.0,0.0,51,0.00,,---,0.00,VWS V14.01,2013-01-21 10:13:00,
2013-01-21 05:17:00,27.3,11.6,30.03,NNW,346,3.0,3.0,51,0.00,,---,0.00,VWS V14.01,2013-01-21 10:17:00,
2013-01-21 05:18:00,27.3,11.6,30.03,NNW,346,0.0,3.0,51,0.00,,---,0.00,VWS V14.01,2013-01-21 10:18:00,
2013-01-21 05:23:00,27.2,11.5,30.03,NNW,346,0.0,0.0,51,0.00,,---,0.00,VWS V14.01,2013-01-21 10:23:00,
2013-01-21 05:28:00,27.2,11.5,30.03,NNW,346,0.0,0.0,51,0.00,,---,0.00,VWS V14.01,2013-01-21 10:28:00,
2013-01-21 05:33:00,27.0,12.2,30.03,NNW,346,0.0,4.0,53,0.00,,---,0.00,VWS V14.01,2013-01-21 10:33:00,
2013-01-21 05:38:00,26.9,13.3,30.03,NNW,346,0.0,0.0,56,0.00,,---,0.00,VWS V14.01,2013-01-21 10:38:00,
2013-01-21 05:43:00,26.6,13.0,30.03,NNW,346,0.0,0.0,56,0.00,,---,0.00,VWS V14.01,2013-01-21 10:43:00,
2013-01-21 05:44:00,26.6,13.0,30.03,NNW,346,0.0,0.0,56,0.00,,---,0.00,VWS V14.01,2013-01-21 10:44:00,
2013-01-21 05:48:00,26.3,12.8,30.03,NNW,346,0.0,0.0,56,0.00,,---,0.00,VWS V14.01,2013-01-21 10:48:00,
2013-01-21 05:49:00,26.3,12.8,30.03,NNW,346,0.0,0.0,56,0.00,,---,0.00,VWS V14.01,2013-01-21 10:49:00,
2013-01-21 05:53:00,26.0,12.5,30.03,NNW,346,0.0,0.0,56,0.00,,---,0.00,VWS V14.01,2013-01-21 10:53:00,
2013-01-21 05:54:00,26.0,12.5,30.03,NNW,346,0.0,0.0,56,0.00,,---,0.00,VWS V14.01,2013-01-21 10:54:00,
2013-01-21 05:58:00,25.8,12.3,30.03,NNW,346,0.0,0.0,56,0.00,,---,0.00,VWS V14.01,2013-01-21 10:58:00,
2013-01-21 05:59:00,25.7,12.2,30.03,NNW,346,0.0,0.0,56,0.00,,---,0.00,VWS V14.01,2013-01-21 10:59:00,
2013-01-21 06:03:00,25.6,12.5,30.03,NNW,346,0.0,1.0,57,0.00,,---,0.00,VWS V14.01,2013-01-21 11:03:00,
2013-01-21 06:04:00,25.6,12.9,30.03,NNW,346,0.0,0.0,58,0.00,,---,0.00,VWS V14.01,2013-01-21 11:04:00,
2013-01-21 06:08:00,25.4,12.7,30.03,NNW,346,0.0,0.0,58,0.00,,---,0.00,VWS V14.01,2013-01-21 11:08:00,
2013-01-21 06:09:00,25.4,12.7,30.03,NNW,346,0.0,0.0,58,0.00,,---,0.00,VWS V14.01,2013-01-21 11:09:00,
2013-01-21 06:14:00,25.4,13.8,30.03,North,360,0.0,0.0,61,0.00,,---,0.00,VWS V14.01,2013-01-21 11:14:00,
2013-01-21 06:19:00,25.3,14.1,30.04,ENE,64,0.0,0.0,62,0.00,,---,0.00,VWS V14.01,2013-01-21 11:19:00,
2013-01-21 06:24:00,25.4,14.2,30.04,ENE,64,0.0,0.0,62,0.00,,---,0.00,VWS V14.01,2013-01-21 11:24:00,
2013-01-21 06:29:00,25.4,14.2,30.04,ENE,65,0.0,0.0,62,0.00,,---,0.00,VWS V14.01,2013-01-21 11:29:00,
2013-01-21 06:34:00,25.6,14.4,30.04,ENE,65,0.0,0.0,62,0.00,,---,0.00,VWS V14.01,2013-01-21 11:34:00,
2013-01-21 06:39:00,25.6,14.4,30.04,ENE,65,0.0,0.0,62,0.00,,---,0.00,VWS V14.01,2013-01-21 11:39:00,
2013-01-21 06:44:00,25.7,14.5,30.04,ENE,65,0.0,1.0,62,0.00,,---,0.00,VWS V14.01,2013-01-21 11:44:00,
2013-01-21 06:49:00,25.8,15.0,30.04,ENE,65,0.0,2.0,63,0.00,,---,0.00,VWS V14.01,2013-01-21 11:49:00,
2013-01-21 06:54:00,25.8,15.0,30.04,ENE,65,0.0,0.0,63,0.00,,---,0.00,VWS V14.01,2013-01-21 11:54:00,
2013-01-21 06:59:00,26.0,14.8,30.04,East,100,0.0,1.0,62,0.00,,---,0.00,VWS V14.01,2013-01-21 11:59:00,
2013-01-21 07:04:00,26.0,14.8,30.04,East,100,0.0,0.0,62,0.00,,---,0.00,VWS V14.01,2013-01-21 12:04:00,
2013-01-21 07:09:00,26.0,14.8,30.04,East,100,0.0,2.0,62,0.00,,---,0.00,VWS V14.01,2013-01-21 12:09:00,
2013-01-21 07:14:00,26.1,14.9,30.04,SE,134,0.0,0.0,62,0.00,,---,0.00,VWS V14.01,2013-01-21 12:14:00,
2013-01-21 07:19:00,26.1,14.9,30.03,SE,134,0.0,0.0,62,0.00,,---,0.00,VWS V14.01,2013-01-21 12:19:00,
2013-01-21 07:20:00,26.1,14.9,30.03,SE,134,0.0,0.0,62,0.00,,---,0.00,VWS V14.01,2013-01-21 12:20:00,
2013-01-21 07:24:00,26.3,15.1,30.03,SE,136,2.0,3.0,62,0.00,,---,0.00,VWS V14.01,2013-01-21 12:24:00,
2013-01-21 07:25:00,26.3,15.1,30.03,SE,136,0.0,0.0,62,0.00,,---,0.00,VWS V14.01,2013-01-21 12:25:00,
2013-01-21 07:29:00,26.3,15.1,30.03,SE,136,0.0,0.0,62,0.00,,---,0.00,VWS V14.01,2013-01-21 12:29:00,
2013-01-21 07:30:00,26.3,15.1,30.03,SE,136,2.0,2.0,62,0.00,,---,0.00,VWS V14.01,2013-01-21 12:30:00,
2013-01-21 07:34:00,26.3,15.1,30.03,SE,136,0.0,0.0,62,0.00,,---,0.00,VWS V14.01,2013-01-21 12:34:00,
2013-01-21 07:35:00,26.3,15.1,30.03,SE,136,0.0,0.0,62,0.00,,---,0.00,VWS V14.01,2013-01-21 12:35:00,
2013-01-21 07:39:00,26.3,14.7,30.03,SE,136,0.0,0.0,61,0.00,,---,0.00,VWS V14.01,2013-01-21 12:39:00,
2013-01-21 07:40:00,26.3,14.7,30.03,SE,136,0.0,0.0,61,0.00,,---,0.00,VWS V14.01,2013-01-21 12:40:00,
2013-01-21 07:44:00,26.3,14.7,30.03,SE,136,0.0,0.0,61,0.00,,---,0.00,VWS V14.01,2013-01-21 12:44:00,
2013-01-21 07:45:00,26.3,14.7,30.03,SE,136,0.0,0.0,61,0.00,,---,0.00,VWS V14.01,2013-01-21 12:45:00,
2013-01-21 07:49:00,26.4,14.8,30.03,SE,136,0.0,2.0,61,0.00,,---,0.00,VWS V14.01,2013-01-21 12:49:00,
2013-01-21 07:50:00,26.4,14.8,30.03,SE,136,0.0,0.0,61,0.00,,---,0.00,VWS V14.01,2013-01-21 12:50:00,
2013-01-21 07:54:00,26.4,15.2,30.03,SE,136,0.0,0.0,62,0.00,,---,0.00,VWS V14.01,2013-01-21 12:54:00,
2013-01-21 07:55:00,26.4,15.2,30.03,SE,136,0.0,0.0,62,0.00,,---,0.00,VWS V14.01,2013-01-21 12:55:00,
2013-01-21 08:00:00,26.4,14.8,30.03,SE,136,0.0,0.0,61,0.00,,---,0.00,VWS V14.01,2013-01-21 13:00:00,
2013-01-21 08:05:00,26.4,15.2,30.03,SE,136,0.0,1.0,62,0.00,,---,0.00,VWS V14.01,2013-01-21 13:05:00,
2013-01-21 08:10:00,26.4,15.2,30.03,SE,136,2.0,2.0,62,0.00,,---,0.00,VWS V14.01,2013-01-21 13:10:00,
2013-01-21 08:15:00,26.4,15.2,30.03,SE,136,1.0,2.0,62,0.00,,---,0.00,VWS V14.01,2013-01-21 13:15:00,
2013-01-21 08:20:00,26.4,14.8,30.03,SE,137,3.0,3.0,61,0.00,,---,0.00,VWS V14.01,2013-01-21 13:20:00,
2013-01-21 08:25:00,26.4,15.2,30.03,SE,138,3.0,3.0,62,0.00,,---,0.00,VWS V14.01,2013-01-21 13:25:00,
2013-01-21 08:30:00,26.4,14.8,30.03,SE,138,0.0,0.0,61,0.00,,---,0.00,VWS V14.01,2013-01-21 13:30:00,
2013-01-21 08:35:00,26.6,15.0,30.03,SE,138,0.0,1.0,61,0.00,,---,0.00,VWS V14.01,2013-01-21 13:35:00,
2013-01-21 08:40:00,26.6,15.0,30.03,SE,138,0.0,0.0,61,0.00,,---,0.00,VWS V14.01,2013-01-21 13:40:00,
2013-01-21 08:45:00,26.6,15.0,30.03,SE,138,0.0,2.0,61,0.00,,---,0.00,VWS V14.01,2013-01-21 13:45:00,
2013-01-21 08:50:00,26.7,14.7,30.03,SE,140,0.0,0.0,60,0.00,,---,0.00,VWS V14.01,2013-01-21 13:50:00,
2013-01-21 08:51:00,26.7,14.7,30.03,SE,140,0.0,0.0,60,0.00,,---,0.00,VWS V14.01,2013-01-21 13:51:00,
2013-01-21 08:55:00,26.7,14.7,30.03,SE,140,1.0,1.0,60,0.00,,---,0.00,VWS V14.01,2013-01-21 13:55:00,
2013-01-21 08:56:00,26.7,14.7,30.03,SE,140,0.0,0.0,60,0.00,,---,0.00,VWS V14.01,2013-01-21 13:56:00,
2013-01-21 09:00:00,26.7,14.7,30.03,SE,140,0.0,0.0,60,0.00,,---,0.00,VWS V14.01,2013-01-21 14:00:00,
2013-01-21 09:01:00,26.7,14.7,30.03,SE,140,0.0,0.0,60,0.00,,---,0.00,VWS V14.01,2013-01-21 14:01:00,
2013-01-21 09:05:00,26.9,14.5,30.03,SE,140,0.0,0.0,59,0.00,,---,0.00,VWS V14.01,2013-01-21 14:05:00,
2013-01-21 09:06:00,26.9,14.5,30.03,SE,140,0.0,0.0,59,0.00,,---,0.00,VWS V14.01,2013-01-21 14:06:00,
2013-01-21 09:10:00,26.9,14.5,30.03,SE,140,0.0,0.0,59,0.00,,---,0.00,VWS V14.01,2013-01-21 14:10:00,
2013-01-21 09:11:00,26.9,14.5,30.03,SE,140,0.0,0.0,59,0.00,,---,0.00,VWS V14.01,2013-01-21 14:11:00,
2013-01-21 09:15:00,27.0,15.0,30.03,SE,140,0.0,0.0,60,0.00,,---,0.00,VWS V14.01,2013-01-21 14:15:00,
2013-01-21 09:16:00,27.0,14.6,30.03,SE,140,0.0,0.0,59,0.00,,---,0.00,VWS V14.01,2013-01-21 14:16:00,
2013-01-21 09:20:00,27.2,14.8,30.02,SE,140,0.0,1.0,59,0.00,,---,0.00,VWS V14.01,2013-01-21 14:20:00,
2013-01-21 09:21:00,27.2,14.8,30.02,SE,140,0.0,0.0,59,0.00,,---,0.00,VWS V14.01,2013-01-21 14:21:00,
2013-01-21 09:25:00,27.2,14.4,30.02,SE,140,0.0,0.0,58,0.00,,---,0.00,VWS V14.01,2013-01-21 14:25:00,
2013-01-21 09:26:00,27.2,14.4,30.02,SE,140,0.0,0.0,58,0.00,,---,0.00,VWS V14.01,2013-01-21 14:26:00,
2013-01-21 09:30:00,27.3,14.5,30.02,SE,140,0.0,0.0,58,0.00,,---,0.00,VWS V14.01,2013-01-21 14:30:00,
2013-01-21 09:31:00,27.3,14.5,30.02,SE,140,2.0,2.0,58,0.00,,---,0.00,VWS V14.01,2013-01-21 14:31:00,
2013-01-21 09:35:00,27.5,14.7,30.02,SE,140,0.0,0.0,58,0.00,,---,0.00,VWS V14.01,2013-01-21 14:35:00,
2013-01-21 09:36:00,27.5,14.7,30.02,SE,140,0.0,0.0,58,0.00,,---,0.00,VWS V14.01,2013-01-21 14:36:00,
2013-01-21 09:41:00,27.6,14.8,30.02,SE,140,0.0,0.0,58,0.00,,---,0.00,VWS V14.01,2013-01-21 14:41:00,
2013-01-21 09:45:00,27.8,15.0,30.02,SE,140,1.0,2.0,58,0.00,,---,0.00,VWS V14.01,2013-01-21 14:45:00,
2013-01-21 09:46:00,27.8,15.0,30.02,SE,140,0.0,1.0,58,0.00,,---,0.00,VWS V14.01,2013-01-21 14:46:00,
2013-01-21 09:51:00,27.9,15.1,30.02,SE,140,0.0,0.0,58,0.00,,---,0.00,VWS V14.01,2013-01-21 14:51:00,
2013-01-21 09:56:00,28.1,15.2,30.02,SSE,150,2.0,3.0,58,0.00,,---,0.00,VWS V14.01,2013-01-21 14:56:00,
2013-01-21 10:01:00,28.2,15.3,30.02,SSE,168,0.0,2.0,58,0.00,,---,0.00,VWS V14.01,2013-01-21 15:01:00,
2013-01-21 10:06:00,28.4,15.1,30.02,South,173,3.0,3.0,57,0.00,,---,0.00,VWS V14.01,2013-01-21 15:06:00,
2013-01-21 10:11:00,28.7,15.0,30.02,South,183,3.0,3.0,56,0.00,,---,0.00,VWS V14.01,2013-01-21 15:11:00,
2013-01-21 10:16:00,28.8,15.1,30.02,South,189,0.0,0.0,56,0.00,,---,0.00,VWS V14.01,2013-01-21 15:16:00,
2013-01-21 10:21:00,29.1,15.4,30.01,South,189,0.0,1.0,56,0.00,,---,0.00,VWS V14.01,2013-01-21 15:21:00,
2013-01-21 10:22:00,29.1,15.4,30.01,South,189,0.0,0.0,56,0.00,,---,0.00,VWS V14.01,2013-01-21 15:22:00,
2013-01-21 10:26:00,29.3,15.1,30.01,South,190,0.0,0.0,55,0.00,,---,0.00,VWS V14.01,2013-01-21 15:26:00,
2013-01-21 10:27:00,29.4,15.2,30.01,South,190,0.0,0.0,55,0.00,,---,0.00,VWS V14.01,2013-01-21 15:27:00,
2013-01-21 10:31:00,29.5,15.8,30.01,South,189,0.0,0.0,56,0.00,,---,0.00,VWS V14.01,2013-01-21 15:31:00,
2013-01-21 10:32:00,29.5,15.8,30.01,SSW,193,5.0,5.0,56,0.00,,---,0.00,VWS V14.01,2013-01-21 15:32:00,
2013-01-21 10:36:00,29.8,15.6,30.01,SSW,198,4.0,5.0,55,0.00,,---,0.00,VWS V14.01,2013-01-21 15:36:00,
2013-01-21 10:37:00,29.8,15.6,30.01,SSW,194,2.0,2.0,55,0.00,,---,0.00,VWS V14.01,2013-01-21 15:37:00,
2013-01-21 10:41:00,30.1,15.9,30.01,South,186,0.0,4.0,55,0.00,,---,0.00,VWS V14.01,2013-01-21 15:41:00,
2013-01-21 10:42:00,30.1,15.9,30.01,ESE,119,0.0,0.0,55,0.00,,---,0.00,VWS V14.01,2013-01-21 15:42:00,
2013-01-21 10:46:00,30.3,15.2,30.01,SSE,157,4.0,4.0,53,0.00,,---,0.00,VWS V14.01,2013-01-21 15:46:00,
2013-01-21 10:47:00,30.3,15.2,29.99,SSE,157,0.0,0.0,53,0.00,,---,0.00,VWS V14.01,2013-01-21 15:47:00,
2013-01-21 10:51:00,30.4,15.3,29.99,SSE,167,0.0,4.0,53,0.00,,---,0.00,VWS V14.01,2013-01-21 15:51:00,
2013-01-21 10:52:00,30.6,15.5,29.99,South,190,0.0,0.0,53,0.00,,---,0.00,VWS V14.01,2013-01-21 15:52:00,
2013-01-21 10:56:00,30.7,15.6,29.99,South,171,0.0,0.0,53,0.00,,---,0.00,VWS V14.01,2013-01-21 15:56:00,
2013-01-21 10:57:00,30.7,15.6,29.99,South,171,0.0,0.0,53,0.00,,---,0.00,VWS V14.01,2013-01-21 15:57:00,
2013-01-21 11:01:00,30.9,15.4,29.99,South,175,0.0,1.0,52,0.00,,---,0.00,VWS V14.01,2013-01-21 16:01:00,
2013-01-21 11:02:00,30.9,15.4,29.98,SE,140,6.0,6.0,52,0.00,,---,0.00,VWS V14.01,2013-01-21 16:02:00,
2013-01-21 11:06:00,31.0,15.4,29.98,South,170,3.0,5.0,52,0.00,,---,0.00,VWS V14.01,2013-01-21 16:06:00,
2013-01-21 11:07:00,31.0,15.4,29.98,SSE,157,2.0,3.0,52,0.00,,---,0.00,VWS V14.01,2013-01-21 16:07:00,
2013-01-21 11:11:00,31.2,15.6,29.98,South,173,1.0,1.0,52,0.00,,---,0.00,VWS V14.01,2013-01-21 16:11:00,
2013-01-21 11:12:00,31.2,15.6,29.98,South,171,2.0,2.0,52,0.00,,---,0.00,VWS V14.01,2013-01-21 16:12:00,
2013-01-21 11:16:00,31.2,15.2,29.98,South,176,5.0,5.0,51,0.00,,---,0.00,VWS V14.01,2013-01-21 16:16:00,
2013-01-21 11:17:00,31.2,15.2,29.96,South,176,0.0,0.0,51,0.00,,---,0.00,VWS V14.01,2013-01-21 16:17:00,
2013-01-21 11:21:00,31.3,15.7,29.96,SSE,167,0.0,4.0,52,0.00,,---,0.00,VWS V14.01,2013-01-21 16:21:00,
2013-01-21 11:22:00,31.3,15.7,29.96,SSE,167,3.0,3.0,52,0.00,,---,0.00,VWS V14.01,2013-01-21 16:22:00,
2013-01-21 11:26:00,31.3,15.7,29.96,South,182,0.0,1.0,52,0.00,,---,0.00,VWS V14.01,2013-01-21 16:26:00,
2013-01-21 11:27:00,31.3,15.7,29.96,SE,140,3.0,5.0,52,0.00,,---,0.00,VWS V14.01,2013-01-21 16:27:00,
2013-01-21 11:31:00,31.3,15.7,29.96,SSE,165,5.0,6.0,52,0.00,,---,0.00,VWS V14.01,2013-01-21 16:31:00,
2013-01-21 11:32:00,31.3,15.7,29.95,South,171,2.0,5.0,52,0.00,,---,0.00,VWS V14.01,2013-01-21 16:32:00,
2013-01-21 11:36:00,31.5,15.9,29.95,South,174,1.0,5.0,52,0.00,,---,0.00,VWS V14.01,2013-01-21 16:36:00,
2013-01-21 11:37:00,31.5,15.9,29.95,South,174,1.0,1.0,52,0.00,,---,0.00,VWS V14.01,2013-01-21 16:37:00,
2013-01-21 11:41:00,31.5,15.9,29.95,SSW,200,5.0,5.0,52,0.00,,---,0.00,VWS V14.01,2013-01-21 16:41:00,
2013-01-21 11:42:00,31.5,15.9,29.95,SSW,200,1.0,4.0,52,0.00,,---,0.00,VWS V14.01,2013-01-21 16:42:00,
2013-01-21 11:46:00,31.5,15.9,29.95,SSE,160,5.0,5.0,52,0.00,,---,0.00,VWS V14.01,2013-01-21 16:46:00,
2013-01-21 11:47:00,31.5,15.9,29.94,SSE,165,2.0,5.0,52,0.00,,---,0.00,VWS V14.01,2013-01-21 16:47:00,
2013-01-21 11:51:00,31.6,16.0,29.94,SSE,165,0.0,0.0,52,0.00,,---,0.00,VWS V14.01,2013-01-21 16:51:00,
2013-01-21 11:52:00,31.6,16.0,29.94,SSE,165,0.0,0.0,52,0.00,,---,0.00,VWS V14.01,2013-01-21 16:52:00,
2013-01-21 11:56:00,31.6,16.5,29.94,SSE,168,2.0,3.0,53,0.00,,---,0.00,VWS V14.01,2013-01-21 16:56:00,
2013-01-21 11:57:00,31.8,16.6,29.94,SSE,167,4.0,5.0,53,0.00,,---,0.00,VWS V14.01,2013-01-21 16:57:00,
2013-01-21 12:01:00,31.8,16.2,29.94,South,175,2.0,2.0,52,0.00,,---,0.00,VWS V14.01,2013-01-21 17:01:00,
2013-01-21 12:02:00,31.8,16.2,29.92,SSE,158,3.0,5.0,52,0.00,,---,0.00,VWS V14.01,2013-01-21 17:02:00,
2013-01-21 12:06:00,31.9,16.3,29.92,SSE,155,3.0,5.0,52,0.00,,---,0.00,VWS V14.01,2013-01-21 17:06:00,
2013-01-21 12:07:00,31.9,16.3,29.92,SSE,152,0.0,3.0,52,0.00,,---,0.00,VWS V14.01,2013-01-21 17:07:00,
2013-01-21 12:11:00,32.1,16.5,29.92,SSE,165,3.0,3.0,52,0.00,,---,0.00,VWS V14.01,2013-01-21 17:11:00,
2013-01-21 12:12:00,32.1,16.5,29.92,SSE,165,0.0,3.0,52,0.00,,---,0.00,VWS V14.01,2013-01-21 17:12:00,
2013-01-21 12:16:00,32.2,16.6,29.92,SSE,165,0.0,3.0,52,0.00,,---,0.00,VWS V14.01,2013-01-21 17:16:00,
2013-01-21 12:17:00,32.2,16.6,29.91,SSE,165,1.0,1.0,52,0.00,,---,0.00,VWS V14.01,2013-01-21 17:17:00,
2013-01-21 12:21:00,32.4,16.8,29.91,SSE,157,4.0,4.0,52,0.00,,---,0.00,VWS V14.01,2013-01-21 17:21:00,
2013-01-21 12:22:00,32.4,16.8,29.91,SE,145,0.0,2.0,52,0.00,,---,0.00,VWS V14.01,2013-01-21 17:22:00,
2013-01-21 12:26:00,32.7,17.0,29.91,South,170,2.0,2.0,52,0.00,,---,0.00,VWS V14.01,2013-01-21 17:26:00,
2013-01-21 12:27:00,32.7,16.6,29.91,South,169,3.0,5.0,51,0.00,,---,0.00,VWS V14.01,2013-01-21 17:27:00,
2013-01-21 12:31:00,32.8,16.7,29.91,South,187,0.0,6.0,51,0.00,,---,0.00,VWS V14.01,2013-01-21 17:31:00,
2013-01-21 12:32:00,32.8,16.7,29.89,South,187,0.0,3.0,51,0.00,,---,0.00,VWS V14.01,2013-01-21 17:32:00,
2013-01-21 12:36:00,33.1,16.5,29.89,SSW,202,0.0,2.0,50,0.00,,---,0.00,VWS V14.01,2013-01-21 17:36:00,
2013-01-21 12:37:00,33.1,16.5,29.89,SSW,202,1.0,1.0,50,0.00,,---,0.00,VWS V14.01,2013-01-21 17:37:00,
2013-01-21 12:41:00,33.2,17.0,29.89,SSW,201,0.0,0.0,51,0.00,,---,0.00,VWS V14.01,2013-01-21 17:41:00,
2013-01-21 12:42:00,33.2,17.5,29.89,SSW,201,0.0,0.0,52,0.00,,---,0.00,VWS V14.01,2013-01-21 17:42:00,
2013-01-21 12:46:00,33.7,16.6,29.89,SSW,198,0.0,5.0,49,0.00,,---,0.00,VWS V14.01,2013-01-21 17:46:00,
2013-01-21 12:47:00,33.7,16.6,29.88,SSW,200,0.0,3.0,49,0.00,,---,0.00,VWS V14.01,2013-01-21 17:47:00,
2013-01-21 12:51:00,34.1,17.0,29.88,South,178,1.0,1.0,49,0.00,,---,0.00,VWS V14.01,2013-01-21 17:51:00,
2013-01-21 12:52:00,34.3,17.1,29.88,SSW,196,3.0,4.0,49,0.00,,---,0.00,VWS V14.01,2013-01-21 17:52:00,
2013-01-21 12:56:00,34.7,17.0,29.88,SSW,204,7.0,10.0,48,0.00,,---,0.00,VWS V14.01,2013-01-21 17:56:00,
2013-01-21 12:57:00,34.7,16.0,29.88,SSW,195,3.0,6.0,46,0.00,,---,0.00,VWS V14.01,2013-01-21 17:57:00,
2013-01-21 13:01:00,35.0,16.3,29.88,South,180,5.0,10.0,46,0.00,,---,0.00,VWS V14.01,2013-01-21 18:01:00,
2013-01-21 13:02:00,35.2,16.5,29.86,SSW,196,2.0,9.0,46,0.00,,---,0.00,VWS V14.01,2013-01-21 18:02:00,
2013-01-21 13:03:00,35.2,16.5,29.86,SSW,194,3.0,6.0,46,0.00,,---,0.00,VWS V14.01,2013-01-21 18:03:00,
2013-01-21 13:06:00,35.3,16.1,29.86,South,180,6.0,9.0,45,0.00,,---,0.00,VWS V14.01,2013-01-21 18:06:00,
2013-01-21 13:07:00,35.3,16.1,29.86,South,190,3.0,5.0,45,0.00,,---,0.00,VWS V14.01,2013-01-21 18:07:00,
2013-01-21 13:08:00,35.3,16.1,29.86,South,184,3.0,4.0,45,0.00,,---,0.00,VWS V14.01,2013-01-21 18:08:00,
2013-01-21 13:11:00,35.5,16.3,29.86,SW,217,6.0,9.0,45,0.00,,---,0.00,VWS V14.01,2013-01-21 18:11:00,
2013-01-21 13:12:00,35.5,16.3,29.86,SSW,197,0.0,9.0,45,0.00,,---,0.00,VWS V14.01,2013-01-21 18:12:00,
2013-01-21 13:13:00,35.6,16.4,29.86,SSW,197,3.0,3.0,45,0.00,,---,0.00,VWS V14.01,2013-01-21 18:13:00,
2013-01-21 13:16:00,35.8,16.5,29.86,SW,235,3.0,6.0,45,0.00,,---,0.00,VWS V14.01,2013-01-21 18:16:00,
2013-01-21 13:17:00,35.8,16.5,29.86,SSW,213,3.0,5.0,45,0.00,,---,0.00,VWS V14.01,2013-01-21 18:17:00,
2013-01-21 13:18:00,35.8,16.0,29.86,SW,215,0.0,5.0,44,0.00,,---,0.00,VWS V14.01,2013-01-21 18:18:00,
2013-01-21 13:22:00,35.9,16.1,29.86,SW,219,2.0,3.0,44,0.00,,---,0.00,VWS V14.01,2013-01-21 18:22:00,
2013-01-21 13:23:00,36.0,16.2,29.86,SSE,163,4.0,6.0,44,0.00,,---,0.00,VWS V14.01,2013-01-21 18:23:00,
2013-01-21 13:27:00,36.2,15.9,29.86,SSE,165,3.0,3.0,43,0.00,,---,0.00,VWS V14.01,2013-01-21 18:27:00,
2013-01-21 13:28:00,36.2,15.9,29.86,South,170,2.0,4.0,43,0.00,,---,0.00,VWS V14.01,2013-01-21 18:28:00,
2013-01-21 13:32:00,36.2,16.4,29.84,SW,215,6.0,6.0,44,0.00,,---,0.00,VWS V14.01,2013-01-21 18:32:00,
2013-01-21 13:33:00,36.3,16.5,29.84,South,169,0.0,3.0,44,0.00,,---,0.00,VWS V14.01,2013-01-21 18:33:00,
2013-01-21 13:37:00,36.5,16.1,29.84,South,178,4.0,5.0,43,0.00,,---,0.00,VWS V14.01,2013-01-21 18:37:00,
2013-01-21 13:38:00,36.6,16.2,29.84,South,171,4.0,5.0,43,0.00,,---,0.00,VWS V14.01,2013-01-21 18:38:00,
2013-01-21 13:42:00,36.8,15.9,29.84,SW,214,6.0,6.0,42,0.00,,---,0.00,VWS V14.01,2013-01-21 18:42:00,
2013-01-21 13:43:00,36.8,15.9,29.84,SW,231,6.0,10.0,42,0.00,,---,0.00,VWS V14.01,2013-01-21 18:43:00,
2013-01-21 13:47:00,37.0,16.1,29.83,SSW,193,7.0,7.0,42,0.00,,---,0.00,VWS V14.01,2013-01-21 18:47:00,
2013-01-21 13:48:00,37.0,16.6,29.83,SSW,204,6.0,6.0,43,0.00,,---,0.00,VWS V14.01,2013-01-21 18:48:00,
2013-01-21 13:52:00,37.3,16.3,29.83,SSW,195,0.0,1.0,42,0.00,,---,0.00,VWS V14.01,2013-01-21 18:52:00,
2013-01-21 13:53:00,37.5,16.5,29.83,SSW,194,1.0,3.0,42,0.00,,---,0.00,VWS V14.01,2013-01-21 18:53:00,
2013-01-21 13:57:00,37.8,15.7,29.83,South,180,7.0,8.0,40,0.00,,---,0.00,VWS V14.01,2013-01-21 18:57:00,
2013-01-21 13:58:00,37.9,15.8,29.83,South,171,5.0,5.0,40,0.00,,---,0.00,VWS V14.01,2013-01-21 18:58:00,
2013-01-21 14:02:00,38.3,16.7,29.82,SSW,212,6.0,6.0,41,0.00,,---,0.00,VWS V14.01,2013-01-21 19:02:00,
2013-01-21 14:03:00,38.3,16.1,29.82,SW,236,1.0,2.0,40,0.00,,---,0.00,VWS V14.01,2013-01-21 19:03:00,
2013-01-21 14:07:00,38.9,16.1,29.82,SSW,193,0.0,0.0,39,0.00,,---,0.00,VWS V14.01,2013-01-21 19:07:00,
2013-01-21 14:08:00,38.9,16.1,29.82,SSW,204,5.0,5.0,39,0.00,,---,0.00,VWS V14.01,2013-01-21 19:08:00,
2013-01-21 14:09:00,39.1,16.8,29.82,SSW,202,7.0,8.0,40,0.00,,---,0.00,VWS V14.01,2013-01-21 19:09:00,
2013-01-21 14:12:00,39.5,16.0,29.82,SW,225,2.0,3.0,38,0.00,,---,0.00,VWS V14.01,2013-01-21 19:12:00,
2013-01-21 14:13:00,39.5,16.0,29.82,South,177,5.0,5.0,38,0.00,,---,0.00,VWS V14.01,2013-01-21 19:13:00,
2013-01-21 14:14:00,39.6,16.1,29.82,South,190,4.0,4.0,38,0.00,,---,0.00,VWS V14.01,2013-01-21 19:14:00,
2013-01-21 14:17:00,39.9,16.4,29.80,SSW,202,5.0,6.0,38,0.00,,---,0.00,VWS V14.01,2013-01-21 19:17:00,
2013-01-21 14:18:00,39.9,15.8,29.80,SSW,201,4.0,6.0,37,0.00,,---,0.00,VWS V14.01,2013-01-21 19:18:00,
2013-01-21 14:19:00,39.9,15.8,29.80,SSW,197,4.0,5.0,37,0.00,,---,0.00,VWS V14.01,2013-01-21 19:19:00,
2013-01-21 14:22:00,40.2,16.6,29.80,SW,232,5.0,5.0,38,0.00,,---,0.00,VWS V14.01,2013-01-21 19:22:00,
2013-01-21 14:23:00,40.2,16.0,29.80,SW,232,1.0,5.0,37,0.00,,---,0.00,VWS V14.01,2013-01-21 19:23:00,
2013-01-21 14:24:00,40.3,16.1,29.80,SW,232,0.0,3.0,37,0.00,,---,0.00,VWS V14.01,2013-01-21 19:24:00,
2013-01-21 14:27:00,40.3,15.5,29.80,SSE,153,4.0,4.0,36,0.00,,---,0.00,VWS V14.01,2013-01-21 19:27:00,
2013-01-21 14:28:00,40.3,16.1,29.80,SE,128,2.0,4.0,37,0.00,,---,0.00,VWS V14.01,2013-01-21 19:28:00,
2013-01-21 14:29:00,40.3,16.1,29.80,SE,128,1.0,2.0,37,0.00,,---,0.00,VWS V14.01,2013-01-21 19:29:00,
2013-01-21 14:32:00,40.5,16.3,29.79,South,187,3.0,6.0,37,0.00,,---,0.00,VWS V14.01,2013-01-21 19:32:00,
2013-01-21 14:33:00,40.5,16.3,29.79,South,183,3.0,6.0,37,0.00,,---,0.00,VWS V14.01,2013-01-21 19:33:00,
2013-01-21 14:34:00,40.5,16.3,29.79,South,183,0.0,1.0,37,0.00,,---,0.00,VWS V14.01,2013-01-21 19:34:00,
2013-01-21 14:37:00,40.5,16.3,29.79,SE,130,3.0,3.0,37,0.00,,---,0.00,VWS V14.01,2013-01-21 19:37:00,
2013-01-21 14:38:00,40.5,16.9,29.79,SE,129,1.0,4.0,38,0.00,,---,0.00,VWS V14.01,2013-01-21 19:38:00,
2013-01-21 14:39:00,40.5,16.3,29.79,SSE,165,3.0,3.0,37,0.00,,---,0.00,VWS V14.01,2013-01-21 19:39:00,
2013-01-21 14:42:00,40.6,16.4,29.79,SSW,200,3.0,5.0,37,0.00,,---,0.00,VWS V14.01,2013-01-21 19:42:00,
2013-01-21 14:43:00,40.6,15.8,29.79,SSW,200,0.0,4.0,36,0.00,,---,0.00,VWS V14.01,2013-01-21 19:43:00,
2013-01-21 14:44:00,40.6,15.8,29.79,SSW,200,0.0,1.0,36,0.00,,---,0.00,VWS V14.01,2013-01-21 19:44:00,
2013-01-21 14:47:00,40.9,17.3,29.79,SW,223,3.0,3.0,38,0.00,,---,0.00,VWS V14.01,2013-01-21 19:47:00,
2013-01-21 14:48:00,40.9,17.3,29.79,SW,223,0.0,4.0,38,0.00,,---,0.00,VWS V14.01,2013-01-21 19:48:00,
2013-01-21 14:49:00,40.9,16.6,29.79,SW,223,2.0,2.0,37,0.00,,---,0.00,VWS V14.01,2013-01-21 19:49:00,
2013-01-21 14:52:00,41.1,15.6,29.79,SSW,211,2.0,2.0,35,0.00,,---,0.00,VWS V14.01,2013-01-21 19:52:00,
2013-01-21 14:53:00,41.1,15.6,29.79,SSW,212,2.0,3.0,35,0.00,,---,0.00,VWS V14.01,2013-01-21 19:53:00,
2013-01-21 14:54:00,41.1,15.6,29.79,SSW,212,1.0,1.0,35,0.00,,---,0.00,VWS V14.01,2013-01-21 19:54:00,
2013-01-21 14:57:00,41.2,16.3,29.79,SSW,212,0.0,0.0,36,0.00,,---,0.00,VWS V14.01,2013-01-21 19:57:00,
2013-01-21 15:02:00,41.1,15.6,29.78,SSW,198,0.0,3.0,35,0.00,,---,0.00,VWS V14.01,2013-01-21 20:02:00,
2013-01-21 15:03:00,41.1,15.6,29.78,SSW,198,0.0,0.0,35,0.00,,---,0.00,VWS V14.01,2013-01-21 20:03:00,
2013-01-21 15:07:00,41.1,15.6,29.78,SSW,198,3.0,3.0,35,0.00,,---,0.00,VWS V14.01,2013-01-21 20:07:00,
2013-01-21 15:08:00,40.9,16.0,29.78,SSW,198,1.0,3.0,36,0.00,,---,0.00,VWS V14.01,2013-01-21 20:08:00,
2013-01-21 15:12:00,40.8,15.9,29.78,SSW,198,0.0,1.0,36,0.00,,---,0.00,VWS V14.01,2013-01-21 20:12:00,
2013-01-21 15:13:00,40.8,15.9,29.78,SSW,198,0.0,0.0,36,0.00,,---,0.00,VWS V14.01,2013-01-21 20:13:00,
2013-01-21 15:17:00,40.6,16.4,29.78,SSW,198,0.0,0.0,37,0.00,,---,0.00,VWS V14.01,2013-01-21 20:17:00,
2013-01-21 15:18:00,40.6,16.4,29.78,SSW,198,0.0,1.0,37,0.00,,---,0.00,VWS V14.01,2013-01-21 20:18:00,
2013-01-21 15:19:00,40.5,16.3,29.78,SSW,198,2.0,2.0,37,0.00,,---,0.00,VWS V14.01,2013-01-21 20:19:00,
2013-01-21 15:23:00,40.5,16.9,29.78,SSW,198,0.0,0.0,38,0.00,,---,0.00,VWS V14.01,2013-01-21 20:23:00,
2013-01-21 15:24:00,40.5,16.9,29.78,SSW,198,0.0,0.0,38,0.00,,---,0.00,VWS V14.01,2013-01-21 20:24:00,
2013-01-21 15:28:00,40.6,17.0,29.78,SSW,209,0.0,1.0,38,0.00,,---,0.00,VWS V14.01,2013-01-21 20:28:00,
2013-01-21 15:29:00,40.6,16.4,29.78,SSW,209,0.0,0.0,37,0.00,,---,0.00,VWS V14.01,2013-01-21 20:29:00,
2013-01-21 15:33:00,40.8,16.6,29.77,SSW,209,0.0,0.0,37,0.00,,---,0.00,VWS V14.01,2013-01-21 20:33:00,
2013-01-21 15:34:00,40.8,15.9,29.77,SSW,209,0.0,0.0,36,0.00,,---,0.00,VWS V14.01,2013-01-21 20:34:00,
2013-01-21 15:38:00,40.8,15.9,29.77,SSW,209,0.0,0.0,36,0.00,,---,0.00,VWS V14.01,2013-01-21 20:38:00,
2013-01-21 15:39:00,40.9,16.6,29.77,SSW,209,0.0,0.0,37,0.00,,---,0.00,VWS V14.01,2013-01-21 20:39:00,
2013-01-21 15:43:00,41.1,16.8,29.77,SSW,212,3.0,4.0,37,0.00,,---,0.00,VWS V14.01,2013-01-21 20:43:00,
2013-01-21 15:44:00,41.1,16.8,29.77,SSW,212,1.0,2.0,37,0.00,,---,0.00,VWS V14.01,2013-01-21 20:44:00,
2013-01-21 15:49:00,41.2,16.3,29.78,SSW,212,2.0,2.0,36,0.00,,---,0.00,VWS V14.01,2013-01-21 20:49:00,
2013-01-21 15:50:00,41.2,16.3,29.78,SSW,212,0.0,0.0,36,0.00,,---,0.00,VWS V14.01,2013-01-21 20:50:00,
2013-01-21 15:54:00,41.2,16.3,29.78,SW,234,0.0,1.0,36,0.00,,---,0.00,VWS V14.01,2013-01-21 20:54:00,
2013-01-21 15:55:00,41.2,15.6,29.78,SW,234,2.0,3.0,35,0.00,,---,0.00,VWS V14.01,2013-01-21 20:55:00,
2013-01-21 16:00:00,41.3,14.4,29.78,SSW,200,2.0,2.0,33,0.00,,---,0.00,VWS V14.01,2013-01-21 21:00:00,
2013-01-21 16:05:00,41.3,14.4,29.78,WNW,296,2.0,2.0,33,0.00,,---,0.00,VWS V14.01,2013-01-21 21:05:00,
2013-01-21 16:10:00,41.5,10.0,29.78,WNW,302,12.0,13.0,27,0.00,,---,0.00,VWS V14.01,2013-01-21 21:10:00,
2013-01-21 16:11:00,41.5,10.0,29.78,West,279,6.0,13.0,27,0.00,,---,0.00,VWS V14.01,2013-01-21 21:11:00,
2013-01-21 16:15:00,41.5,10.0,29.78,NW,311,10.0,20.0,27,0.00,,---,0.00,VWS V14.01,2013-01-21 21:15:00,
2013-01-21 16:16:00,41.5,10.0,29.78,NNW,340,9.0,9.0,27,0.00,,---,0.00,VWS V14.01,2013-01-21 21:16:00,
2013-01-21 16:21:00,40.9,10.3,29.80,ESE,119,3.0,7.0,28,0.00,,---,0.00,VWS V14.01,2013-01-21 21:21:00,
2013-01-21 16:26:00,40.5,10.0,29.80,SW,233,3.0,3.0,28,0.00,,---,0.00,VWS V14.01,2013-01-21 21:26:00,
2013-01-21 16:32:00,39.9,10.2,29.81,West,270,9.0,18.0,29,0.00,,---,0.00,VWS V14.01,2013-01-21 21:32:00,
2013-01-21 16:33:00,39.9,10.2,29.81,West,270,9.0,18.0,29,0.00,,---,0.00,VWS V14.01,2013-01-21 21:33:00,
2013-01-21 16:38:00,39.3,10.5,29.81,NW,323,14.0,17.0,30,0.00,,---,0.00,VWS V14.01,2013-01-21 21:38:00,
2013-01-21 16:43:00,38.9,10.9,29.81,West,265,5.0,6.0,31,0.00,,---,0.00,VWS V14.01,2013-01-21 21:43:00,
2013-01-21 16:48:00,38.5,10.5,29.81,West,262,10.0,16.0,31,0.00,,---,0.00,VWS V14.01,2013-01-21 21:48:00,
2013-01-21 16:49:00,38.5,10.5,29.81,WNW,295,1.0,16.0,31,0.00,,---,0.00,VWS V14.01,2013-01-21 21:49:00,
2013-01-21 16:53:00,38.0,10.8,29.81,WNW,298,5.0,19.0,32,0.00,,---,0.00,VWS V14.01,2013-01-21 21:53:00,
2013-01-21 16:54:00,37.9,10.7,29.81,NW,306,3.0,3.0,32,0.00,,---,0.00,VWS V14.01,2013-01-21 21:54:00,
2013-01-21 16:58:00,37.6,10.4,29.81,SW,225,2.0,15.0,32,0.00,,---,0.00,VWS V14.01,2013-01-21 21:58:00,
2013-01-21 16:59:00,37.5,11.0,29.81,NW,317,3.0,4.0,33,0.00,,---,0.00,VWS V14.01,2013-01-21 21:59:00,
2013-01-21 17:03:00,37.2,11.4,29.83,NW,318,1.0,5.0,34,0.00,,---,0.00,VWS V14.01,2013-01-21 22:03:00,
2013-01-21 17:04:00,37.2,11.4,29.83,WNW,290,3.0,3.0,34,0.00,,---,0.00,VWS V14.01,2013-01-21 22:04:00,
2013-01-21 17:08:00,36.8,11.7,29.83,NNW,336,15.0,16.0,35,0.00,,---,0.00,VWS V14.01,2013-01-21 22:08:00,
2013-01-21 17:09:00,36.8,11.7,29.83,WNW,286,17.0,17.0,35,0.00,,---,0.00,VWS V14.01,2013-01-21 22:09:00,
2013-01-21 17:13:00,36.3,11.3,29.83,West,267,4.0,14.0,35,0.00,,---,0.00,VWS V14.01,2013-01-21 22:13:00,
2013-01-21 17:14:00,36.3,11.3,29.83,NW,304,4.0,6.0,35,0.00,,---,0.00,VWS V14.01,2013-01-21 22:14:00,
2013-01-21 17:18:00,35.9,11.6,29.84,West,277,2.0,6.0,36,0.00,,---,0.00,VWS V14.01,2013-01-21 22:18:00,
2013-01-21 17:19:00,35.9,11.6,29.84,NW,316,4.0,4.0,36,0.00,,---,0.00,VWS V14.01,2013-01-21 22:19:00,
2013-01-21 17:23:00,35.6,11.9,29.84,NW,304,4.0,16.0,37,0.00,,---,0.00,VWS V14.01,2013-01-21 22:23:00,
2013-01-21 17:24:00,35.6,11.9,29.84,WNW,292,2.0,8.0,37,0.00,,---,0.00,VWS V14.01,2013-01-21 22:24:00,
2013-01-21 17:28:00,35.3,11.6,29.84,NNW,344,3.0,9.0,37,0.00,,---,0.00,VWS V14.01,2013-01-21 22:28:00,
2013-01-21 17:29:00,35.3,11.6,29.84,NNW,329,7.0,7.0,37,0.00,,---,0.00,VWS V14.01,2013-01-21 22:29:00,
2013-01-21 17:33:00,35.0,12.0,29.85,NW,304,7.0,10.0,38,0.00,,---,0.00,VWS V14.01,2013-01-21 22:33:00,
2013-01-21 17:34:00,35.0,12.0,29.85,NW,304,7.0,10.0,38,0.00,,---,0.00,VWS V14.01,2013-01-21 22:34:00,
2013-01-21 17:38:00,34.6,12.8,29.85,WNW,303,4.0,9.0,40,0.00,,---,0.00,VWS V14.01,2013-01-21 22:38:00,
2013-01-21 17:39:00,34.6,13.3,29.85,WSW,250,4.0,7.0,41,0.00,,---,0.00,VWS V14.01,2013-01-21 22:39:00,
2013-01-21 17:43:00,34.1,14.0,29.85,NW,311,7.0,12.0,43,0.00,,---,0.00,VWS V14.01,2013-01-21 22:43:00,
2013-01-21 17:44:00,34.1,14.0,29.85,NW,311,7.0,12.0,43,0.00,,---,0.00,VWS V14.01,2013-01-21 22:44:00,
2013-01-21 17:48:00,33.7,14.1,29.86,WNW,298,7.0,12.0,44,0.00,,---,0.00,VWS V14.01,2013-01-21 22:48:00,
2013-01-21 17:49:00,33.5,13.9,29.86,West,270,8.0,8.0,44,0.00,,---,0.00,VWS V14.01,2013-01-21 22:49:00,
2013-01-21 17:54:00,33.1,14.6,29.86,NNW,346,3.0,5.0,46,0.00,,---,0.00,VWS V14.01,2013-01-21 22:54:00,
2013-01-21 17:59:00,32.7,14.7,29.86,WNW,298,4.0,7.0,47,0.00,,---,0.00,VWS V14.01,2013-01-21 22:59:00,
2013-01-21 18:04:00,32.2,15.2,29.88,WSW,254,4.0,7.0,49,0.00,,---,0.00,VWS V14.01,2013-01-21 23:04:00,
2013-01-21 18:09:00,31.9,15.4,29.88,NW,313,13.0,16.0,50,0.00,,---,0.00,VWS V14.01,2013-01-21 23:09:00,
2013-01-21 18:14:00,31.6,15.6,29.88,WNW,294,5.0,6.0,51,0.00,,---,0.00,VWS V14.01,2013-01-21 23:14:00,
2013-01-21 18:19:00,31.3,15.7,29.89,NW,319,4.0,4.0,52,0.00,,---,0.00,VWS V14.01,2013-01-21 23:19:00,
2013-01-21 18:24:00,31.0,15.9,29.89,West,265,6.0,12.0,53,0.00,,---,0.00,VWS V14.01,2013-01-21 23:24:00,
2013-01-21 18:29:00,30.7,16.0,29.89,West,262,10.0,10.0,54,0.00,,---,0.00,VWS V14.01,2013-01-21 23:29:00,
2013-01-21 18:34:00,30.4,16.6,29.89,NW,319,2.0,3.0,56,0.00,,---,0.00,VWS V14.01,2013-01-21 23:34:00,
2013-01-21 18:39:00,30.1,16.7,29.89,West,271,4.0,7.0,57,0.00,,---,0.00,VWS V14.01,2013-01-21 23:39:00,
2013-01-21 18:44:00,30.0,16.6,29.89,WSW,240,0.0,0.0,57,0.00,,---,0.00,VWS V14.01,2013-01-21 23:44:00,
2013-01-21 18:49:00,29.7,16.8,29.90,NNE,16,1.0,2.0,58,0.00,,---,0.00,VWS V14.01,2013-01-21 23:49:00,
2013-01-21 18:54:00,29.5,16.6,29.90,NW,323,3.0,4.0,58,0.00,,---,0.00,VWS V14.01,2013-01-21 23:54:00,
2013-01-21 18:59:00,29.3,16.8,29.90,WNW,302,2.0,3.0,59,0.00,,---,0.00,VWS V14.01,2013-01-21 23:59:00,
2013-01-21 19:04:00,29.1,17.0,29.90,NW,313,2.0,10.0,60,0.00,,---,0.00,VWS V14.01,2013-01-22 00:04:00,
2013-01-21 19:05:00,29.1,17.0,29.90,NW,310,5.0,6.0,60,0.00,,---,0.00,VWS V14.01,2013-01-22 00:05:00,
2013-01-21 19:09:00,28.8,17.1,29.90,NW,308,3.0,5.0,61,0.00,,---,0.00,VWS V14.01,2013-01-22 00:09:00,
2013-01-21 19:10:00,28.8,17.1,29.90,North,355,2.0,4.0,61,0.00,,---,0.00,VWS V14.01,2013-01-22 00:10:00,
2013-01-21 19:14:00,28.7,17.3,29.90,NW,315,9.0,9.0,62,0.00,,---,0.00,VWS V14.01,2013-01-22 00:14:00,
2013-01-21 19:15:00,28.7,17.3,29.90,NW,325,1.0,4.0,62,0.00,,---,0.00,VWS V14.01,2013-01-22 00:15:00,
2013-01-21 19:19:00,28.7,17.3,29.91,NW,311,2.0,3.0,62,0.00,,---,0.00,VWS V14.01,2013-01-22 00:19:00,
2013-01-21 19:20:00,28.7,17.3,29.91,NW,311,1.0,2.0,62,0.00,,---,0.00,VWS V14.01,2013-01-22 00:20:00,
2013-01-21 19:24:00,28.5,16.8,29.91,NW,308,10.0,12.0,61,0.00,,---,0.00,VWS V14.01,2013-01-22 00:24:00,
2013-01-21 19:25:00,28.5,16.8,29.91,SW,234,5.0,10.0,61,0.00,,---,0.00,VWS V14.01,2013-01-22 00:25:00,
2013-01-21 19:29:00,28.5,16.8,29.91,NW,304,4.0,4.0,61,0.00,,---,0.00,VWS V14.01,2013-01-22 00:29:00,
2013-01-21 19:30:00,28.5,16.8,29.91,NW,325,11.0,11.0,61,0.00,,---,0.00,VWS V14.01,2013-01-22 00:30:00,
2013-01-21 19:34:00,28.5,16.8,29.90,WNW,289,1.0,1.0,61,0.00,,---,0.00,VWS V14.01,2013-01-22 00:34:00,
2013-01-21 19:35:00,28.5,16.8,29.90,NW,316,9.0,9.0,61,0.00,,---,0.00,VWS V14.01,2013-01-22 00:35:00,
2013-01-21 19:39:00,28.4,16.7,29.90,West,272,6.0,13.0,61,0.00,,---,0.00,VWS V14.01,2013-01-22 00:39:00,
2013-01-21 19:40:00,28.4,16.7,29.90,WNW,295,2.0,6.0,61,0.00,,---,0.00,VWS V14.01,2013-01-22 00:40:00,
2013-01-21 19:45:00,28.4,17.1,29.90,NE,40,3.0,3.0,62,0.00,,---,0.00,VWS V14.01,2013-01-22 00:45:00,
2013-01-21 19:50:00,28.2,16.9,29.89,NNW,333,9.0,11.0,62,0.00,,---,0.00,VWS V14.01,2013-01-22 00:50:00,
2013-01-21 19:55:00,28.2,16.5,29.89,WSW,254,3.0,3.0,61,0.00,,---,0.00,VWS V14.01,2013-01-22 00:55:00,
2013-01-21 20:00:00,28.1,16.0,29.89,SSW,201,9.0,9.0,60,0.00,,---,0.00,VWS V14.01,2013-01-22 01:00:00,
2013-01-21 20:05:00,27.9,15.8,29.90,WNW,283,0.0,4.0,60,0.00,,---,0.00,VWS V14.01,2013-01-22 01:05:00,
2013-01-21 20:10:00,27.9,15.1,29.90,WNW,286,0.0,2.0,58,0.00,,---,0.00,VWS V14.01,2013-01-22 01:10:00,
2013-01-21 20:11:00,27.8,15.0,29.90,SW,227,5.0,5.0,58,0.00,,---,0.00,VWS V14.01,2013-01-22 01:11:00,
2013-01-21 20:15:00,27.8,15.0,29.90,West,269,0.0,0.0,58,0.00,,---,0.00,VWS V14.01,2013-01-22 01:15:00,
2013-01-21 20:16:00,27.8,15.0,29.90,NW,316,0.0,2.0,58,0.00,,---,0.00,VWS V14.01,2013-01-22 01:16:00,
2013-01-21 20:20:00,27.8,15.0,29.90,WSW,255,7.0,15.0,58,0.00,,---,0.00,VWS V14.01,2013-01-22 01:20:00,
2013-01-21 20:21:00,27.8,15.0,29.90,West,259,9.0,16.0,58,0.00,,---,0.00,VWS V14.01,2013-01-22 01:21:00,
2013-01-21 20:25:00,27.6,14.4,29.90,WNW,283,2.0,4.0,57,0.00,,---,0.00,VWS V14.01,2013-01-22 01:25:00,
2013-01-21 20:26:00,27.6,14.4,29.90,NNW,346,5.0,5.0,57,0.00,,---,0.00,VWS V14.01,2013-01-22 01:26:00,
2013-01-21 20:30:00,27.6,14.4,29.90,West,281,5.0,17.0,57,0.00,,---,0.00,VWS V14.01,2013-01-22 01:30:00,
2013-01-21 20:31:00,27.6,14.4,29.90,West,264,4.0,6.0,57,0.00,,---,0.00,VWS V14.01,2013-01-22 01:31:00,
2013-01-21 20:35:00,27.6,14.0,29.90,NNW,329,3.0,9.0,56,0.00,,---,0.00,VWS V14.01,2013-01-22 01:35:00,
2013-01-21 20:36:00,27.6,14.0,29.90,NNW,329,0.0,1.0,56,0.00,,---,0.00,VWS V14.01,2013-01-22 01:36:00,
2013-01-21 20:40:00,27.6,14.0,29.90,NW,319,0.0,4.0,56,0.00,,---,0.00,VWS V14.01,2013-01-22 01:40:00,
2013-01-21 20:41:00,27.6,14.0,29.90,WNW,289,10.0,10.0,56,0.00,,---,0.00,VWS V14.01,2013-01-22 01:41:00,
2013-01-21 20:45:00,27.6,14.0,29.90,WNW,295,0.0,0.0,56,0.00,,---,0.00,VWS V14.01,2013-01-22 01:45:00,
2013-01-21 20:46:00,27.6,14.0,29.90,WNW,290,3.0,4.0,56,0.00,,---,0.00,VWS V14.01,2013-01-22 01:46:00,
2013-01-21 20:50:00,27.8,13.8,29.91,WNW,295,5.0,10.0,55,0.00,,---,0.00,VWS V14.01,2013-01-22 01:50:00,
2013-01-21 20:51:00,27.8,13.8,29.91,WNW,295,3.0,10.0,55,0.00,,---,0.00,VWS V14.01,2013-01-22 01:51:00,
2013-01-21 20:55:00,27.8,13.3,29.91,NW,304,6.0,6.0,54,0.00,,---,0.00,VWS V14.01,2013-01-22 01:55:00,
2013-01-21 20:56:00,27.8,13.3,29.91,NW,324,11.0,11.0,54,0.00,,---,0.00,VWS V14.01,2013-01-22 01:56:00,
2013-01-21 21:00:00,27.9,13.0,29.91,West,275,0.0,10.0,53,0.00,,---,0.00,VWS V14.01,2013-01-22 02:00:00,
2013-01-21 21:01:00,27.9,13.0,29.91,West,275,0.0,0.0,53,0.00,,---,0.00,VWS V14.01,2013-01-22 02:01:00,
2013-01-21 21:05:00,27.9,13.0,29.91,West,277,0.0,2.0,53,0.00,,---,0.00,VWS V14.01,2013-01-22 02:05:00,
2013-01-21 21:06:00,27.9,13.0,29.91,West,277,4.0,4.0,53,0.00,,---,0.00,VWS V14.01,2013-01-22 02:06:00,
2013-01-21 21:10:00,27.9,13.0,29.91,NW,309,3.0,5.0,53,0.00,,---,0.00,VWS V14.01,2013-01-22 02:10:00,
2013-01-21 21:11:00,27.9,13.0,29.91,West,271,4.0,5.0,53,0.00,,---,0.00,VWS V14.01,2013-01-22 02:11:00,
2013-01-21 21:15:00,27.8,12.9,29.91,WNW,294,4.0,7.0,53,0.00,,---,0.00,VWS V14.01,2013-01-22 02:15:00,
2013-01-21 21:16:00,27.8,12.9,29.91,NW,311,4.0,7.0,53,0.00,,---,0.00,VWS V14.01,2013-01-22 02:16:00,
2013-01-21 21:20:00,27.8,12.5,29.90,NNW,342,1.0,7.0,52,0.00,,---,0.00,VWS V14.01,2013-01-22 02:20:00,
2013-01-21 21:21:00,27.8,12.5,29.90,SW,225,5.0,7.0,52,0.00,,---,0.00,VWS V14.01,2013-01-22 02:21:00,
2013-01-21 21:26:00,27.6,12.3,29.90,West,272,3.0,18.0,52,0.00,,---,0.00,VWS V14.01,2013-01-22 02:26:00,
2013-01-21 21:27:00,27.6,12.3,29.90,WNW,288,9.0,13.0,52,0.00,,---,0.00,VWS V14.01,2013-01-22 02:27:00,
2013-01-21 21:31:00,27.6,12.7,29.90,WNW,291,7.0,9.0,53,0.00,,---,0.00,VWS V14.01,2013-01-22 02:31:00,
2013-01-21 21:32:00,27.6,12.3,29.91,West,265,1.0,1.0,52,0.00,,---,0.00,VWS V14.01,2013-01-22 02:32:00,
2013-01-21 21:36:00,27.5,12.2,29.91,South,191,1.0,1.0,52,0.00,,---,0.00,VWS V14.01,2013-01-22 02:36:00,
2013-01-21 21:37:00,27.5,12.2,29.91,NNW,327,0.0,4.0,52,0.00,,---,0.00,VWS V14.01,2013-01-22 02:37:00,
2013-01-21 21:41:00,27.3,12.0,29.91,NW,323,4.0,11.0,52,0.00,,---,0.00,VWS V14.01,2013-01-22 02:41:00,
2013-01-21 21:42:00,27.3,12.0,29.91,West,268,18.0,18.0,52,0.00,,---,0.00,VWS V14.01,2013-01-22 02:42:00,
2013-01-21 21:46:00,27.2,11.5,29.91,West,266,4.0,5.0,51,0.00,,---,0.00,VWS V14.01,2013-01-22 02:46:00,
2013-01-21 21:47:00,27.2,11.5,29.91,SW,236,10.0,10.0,51,0.00,,---,0.00,VWS V14.01,2013-01-22 02:47:00,
2013-01-21 21:51:00,27.0,11.3,29.92,WSW,253,12.0,13.0,51,0.00,,---,0.00,VWS V14.01,2013-01-22 02:51:00,
2013-01-21 21:52:00,27.0,11.7,29.92,West,264,14.0,14.0,52,0.00,,---,0.00,VWS V14.01,2013-01-22 02:52:00,
2013-01-21 21:56:00,27.0,11.3,29.92,NE,46,2.0,3.0,51,0.00,,---,0.00,VWS V14.01,2013-01-22 02:56:00,
2013-01-21 21:57:00,27.0,11.3,29.92,WNW,302,5.0,10.0,51,0.00,,---,0.00,VWS V14.01,2013-01-22 02:57:00,
2013-01-21 22:01:00,26.9,11.6,29.92,WNW,285,9.0,11.0,52,0.00,,---,0.00,VWS V14.01,2013-01-22 03:01:00,
2013-01-21 22:02:00,26.9,11.6,29.92,NW,325,3.0,9.0,52,0.00,,---,0.00,VWS V14.01,2013-01-22 03:02:00,
2013-01-21 22:06:00,26.7,11.4,29.92,West,277,4.0,14.0,52,0.00,,---,0.00,VWS V14.01,2013-01-22 03:06:00,
2013-01-21 22:07:00,26.7,11.9,29.92,NNW,346,11.0,16.0,53,0.00,,---,0.00,VWS V14.01,2013-01-22 03:07:00,
2013-01-21 22:11:00,26.6,11.4,29.92,WSW,243,15.0,15.0,52,0.00,,---,0.00,VWS V14.01,2013-01-22 03:11:00,
2013-01-21 22:12:00,26.4,12.4,29.92,WNW,294,10.0,20.0,55,0.00,,---,0.00,VWS V14.01,2013-01-22 03:12:00,
2013-01-21 22:16:00,26.3,12.3,29.92,NW,325,4.0,12.0,55,0.00,,---,0.00,VWS V14.01,2013-01-22 03:16:00,
2013-01-21 22:17:00,26.3,12.3,29.92,WNW,286,11.0,11.0,55,0.00,,---,0.00,VWS V14.01,2013-01-22 03:17:00,
2013-01-21 22:21:00,26.0,12.1,29.92,West,275,4.0,7.0,55,0.00,,---,0.00,VWS V14.01,2013-01-22 03:21:00,
2013-01-21 22:22:00,26.0,12.5,29.92,NW,304,12.0,12.0,56,0.00,,---,0.00,VWS V14.01,2013-01-22 03:22:00,
2013-01-21 22:26:00,26.0,12.5,29.92,WNW,301,14.0,14.0,56,0.00,,---,0.00,VWS V14.01,2013-01-22 03:26:00,
2013-01-21 22:27:00,25.8,12.3,29.92,NW,305,8.0,9.0,56,0.00,,---,0.00,VWS V14.01,2013-01-22 03:27:00,
2013-01-21 22:31:00,25.8,12.3,29.92,WNW,285,1.0,11.0,56,0.00,,---,0.00,VWS V14.01,2013-01-22 03:31:00,
2013-01-21 22:32:00,25.8,12.3,29.93,West,263,21.0,21.0,56,0.00,,---,0.00,VWS V14.01,2013-01-22 03:32:00,
2013-01-21 22:36:00,25.7,12.2,29.93,West,269,4.0,5.0,56,0.00,,---,0.00,VWS V14.01,2013-01-22 03:36:00,
2013-01-21 22:37:00,25.7,12.2,29.93,West,259,9.0,9.0,56,0.00,,---,0.00,VWS V14.01,2013-01-22 03:37:00,
2013-01-21 22:41:00,25.6,11.7,29.93,ESE,103,1.0,7.0,55,0.00,,---,0.00,VWS V14.01,2013-01-22 03:41:00,
2013-01-21 22:42:00,25.6,11.7,29.93,WNW,290,6.0,6.0,55,0.00,,---,0.00,VWS V14.01,2013-01-22 03:42:00,
2013-01-21 22:46:00,25.4,10.7,29.93,NNW,348,9.0,18.0,53,0.00,,---,0.00,VWS V14.01,2013-01-22 03:46:00,
2013-01-21 22:47:00,25.4,10.7,29.92,WNW,296,3.0,4.0,53,0.00,,---,0.00,VWS V14.01,2013-01-22 03:47:00,
2013-01-21 22:51:00,25.3,10.6,29.92,SW,218,1.0,13.0,53,0.00,,---,0.00,VWS V14.01,2013-01-22 03:51:00,
2013-01-21 22:52:00,25.3,10.6,29.92,WSW,258,6.0,6.0,53,0.00,,---,0.00,VWS V14.01,2013-01-22 03:52:00,
2013-01-21 22:56:00,25.1,10.0,29.92,NW,306,4.0,7.0,52,0.00,,---,0.00,VWS V14.01,2013-01-22 03:56:00,
2013-01-21 22:57:00,25.0,10.3,29.92,NNW,345,3.0,5.0,53,0.00,,---,0.00,VWS V14.01,2013-01-22 03:57:00,
2013-01-21 23:01:00,24.8,10.9,29.92,WSW,243,1.0,10.0,55,0.00,,---,0.00,VWS V14.01,2013-01-22 04:01:00,
2013-01-21 23:02:00,24.8,10.9,29.93,WSW,243,0.0,1.0,55,0.00,,---,0.00,VWS V14.01,2013-01-22 04:02:00,
2013-01-21 23:06:00,24.7,11.6,29.93,NW,311,3.0,13.0,57,0.00,,---,0.00,VWS V14.01,2013-01-22 04:06:00,
2013-01-21 23:07:00,24.7,11.6,29.93,WNW,286,3.0,3.0,57,0.00,,---,0.00,VWS V14.01,2013-01-22 04:07:00,
2013-01-21 23:11:00,24.4,11.8,29.93,WNW,284,9.0,10.0,58,0.00,,---,0.00,VWS V14.01,2013-01-22 04:11:00,
2013-01-21 23:12:00,24.4,11.8,29.93,WSW,255,16.0,16.0,58,0.00,,---,0.00,VWS V14.01,2013-01-22 04:12:00,
2013-01-21 23:16:00,24.2,12.3,29.93,WNW,296,5.0,11.0,60,0.00,,---,0.00,VWS V14.01,2013-01-22 04:16:00,
2013-01-21 23:17:00,24.2,12.3,29.93,NW,309,13.0,13.0,60,0.00,,---,0.00,VWS V14.01,2013-01-22 04:17:00,
2013-01-21 23:21:00,24.1,11.9,29.93,SSE,162,2.0,12.0,59,0.00,,---,0.00,VWS V14.01,2013-01-22 04:21:00,
2013-01-21 23:22:00,23.9,11.7,29.93,West,259,6.0,6.0,59,0.00,,---,0.00,VWS V14.01,2013-01-22 04:22:00,
2013-01-21 23:26:00,23.8,10.4,29.93,SW,219,3.0,12.0,56,0.00,,---,0.00,VWS V14.01,2013-01-22 04:26:00,
2013-01-21 23:27:00,23.8,10.4,29.93,West,270,6.0,9.0,56,0.00,,---,0.00,VWS V14.01,2013-01-22 04:27:00,
2013-01-21 23:31:00,23.6,9.8,29.93,WNW,288,19.0,23.0,55,0.00,,---,0.00,VWS V14.01,2013-01-22 04:31:00,
2013-01-21 23:32:00,23.6,9.8,29.94,NNW,329,3.0,19.0,55,0.00,,---,0.00,VWS V14.01,2013-01-22 04:32:00,
2013-01-21 23:37:00,23.6,9.8,29.94,West,259,13.0,13.0,55,0.00,,---,0.00,VWS V14.01,2013-01-22 04:37:00,
2013-01-21 23:38:00,23.6,9.8,29.94,West,261,7.0,7.0,55,0.00,,---,0.00,VWS V14.01,2013-01-22 04:38:00,
2013-01-21 23:42:00,23.5,9.3,29.94,West,264,10.0,13.0,54,0.00,,---,0.00,VWS V14.01,2013-01-22 04:42:00,
2013-01-21 23:43:00,23.5,9.3,29.94,SW,232,11.0,12.0,54,0.00,,---,0.00,VWS V14.01,2013-01-22 04:43:00,
2013-01-21 23:47:00,23.5,8.9,29.93,WNW,295,12.0,12.0,53,0.00,,---,0.00,VWS V14.01,2013-01-22 04:47:00,
2013-01-21 23:48:00,23.3,8.7,29.93,NNW,327,1.0,3.0,53,0.00,,---,0.00,VWS V14.01,2013-01-22 04:48:00,
2013-01-21 23:52:00,23.2,8.6,29.93,NW,314,6.0,12.0,53,0.00,,---,0.00,VWS V14.01,2013-01-22 04:52:00,
2013-01-21 23:53:00,23.2,8.6,29.93,West,265,11.0,11.0,53,0.00,,---,0.00,VWS V14.01,2013-01-22 04:53:00,
2013-01-21 23:57:00,23.2,8.6,29.93,WNW,300,4.0,6.0,53,0.00,,---,0.00,VWS V14.01,2013-01-22 04:57:00,
2013-01-21 23:58:00,23.0,8.4,29.93,WNW,293,12.0,18.0,53,0.00,,---,0.00,VWS V14.01,2013-01-22 04:58:00,